createdAt,value
2023-04-17T00:01:16.781Z,2.72
2023-04-17T00:03:45.549Z,2.17
2023-04-17T00:06:17.561Z,2.10
2023-04-17T00:08:51.251Z,1.67
2023-04-17T00:11:30.630Z,2.50
2023-04-17T00:14:05.714Z,2.00
2023-04-17T00:16:33.033Z,1.80
2023-04-17T00:19:09.974Z,1.65
2023-04-17T00:21:40.530Z,1.83
2023-04-17T00:24:17.020Z,2.08
2023-04-17T00:26:43.884Z,2.00
2023-04-17T00:29:11.497Z,2.15
2023-04-17T00:34:38.159Z,1.75
2023-04-17T00:37:06.114Z,2.00
2023-04-17T00:42:48.578Z,1.80
2023-04-17T00:45:22.916Z,2.08
2023-04-17T00:47:57.008Z,1.92
2023-04-17T00:50:34.146Z,1.42
2023-04-17T00:53:02.246Z,1.90
2023-04-17T00:55:32.584Z,2.00
2023-04-17T00:58:03.306Z,2.03
2023-04-17T01:00:31.045Z,1.80
2023-04-17T01:03:07.001Z,2.28
2023-04-17T01:05:39.663Z,1.80
2023-04-17T01:10:51.992Z,1.98
2023-04-17T01:13:27.487Z,1.92
2023-04-17T01:16:03.893Z,1.92
2023-04-17T01:18:36.957Z,1.90
2023-04-17T01:21:11.070Z,2.17
2023-04-17T01:23:52.430Z,2.45
2023-04-17T01:26:24.991Z,2.08
2023-04-17T01:29:12.792Z,2.08
2023-04-17T01:31:54.604Z,2.25
2023-04-17T01:34:37.298Z,2.40
2023-04-17T01:37:09.393Z,2.45
2023-04-17T01:39:50.172Z,2.70
2023-04-17T01:42:25.020Z,2.35
2023-04-17T01:44:53.467Z,2.70
2023-04-17T01:47:25.378Z,2.58
2023-04-17T01:49:59.006Z,2.78
2023-04-17T01:52:26.791Z,2.55
2023-04-17T01:54:54.666Z,2.47
2023-04-17T01:57:22.462Z,1.85
2023-04-17T02:00:01.950Z,2.40
2023-04-17T02:02:36.179Z,2.50
2023-04-17T02:05:03.524Z,1.95
2023-04-17T02:07:40.096Z,2.70
2023-04-17T02:10:08.634Z,2.03
2023-04-17T02:15:42.265Z,2.22
2023-04-17T02:18:13.234Z,2.50
2023-04-17T02:20:40.923Z,1.92
2023-04-17T02:23:14.743Z,1.95
2023-04-17T02:25:57.937Z,1.80
2023-04-17T02:28:31.411Z,1.75
2023-04-17T02:31:04.286Z,2.30
2023-04-17T02:33:35.049Z,2.28
2023-04-17T02:36:34.485Z,1.88
2023-04-17T02:39:03.091Z,2.20
2023-04-17T02:41:36.576Z,2.17
2023-04-17T02:44:06.842Z,2.20
2023-04-17T02:46:36.951Z,2.15
2023-04-17T02:49:06.726Z,2.35
2023-04-17T02:51:52.001Z,1.85
2023-04-17T02:54:28.846Z,2.03
2023-04-17T02:57:04.026Z,1.77
2023-04-17T02:59:44.002Z,1.67
2023-04-17T03:02:21.197Z,1.85
2023-04-17T03:04:57.788Z,1.90
2023-04-17T03:08:04.701Z,1.88
2023-04-17T03:10:54.217Z,2.03
2023-04-17T03:13:22.082Z,1.70
2023-04-17T03:15:49.740Z,2.20
2023-04-17T03:18:18.588Z,2.00
2023-04-17T03:20:46.056Z,2.05
2023-04-17T03:23:13.058Z,2.30
2023-04-17T03:25:46.201Z,2.13
2023-04-17T03:28:13.109Z,2.35
2023-04-17T03:30:39.947Z,2.50
2023-04-17T03:33:06.944Z,2.78
2023-04-17T03:35:39.212Z,2.10
2023-04-17T03:38:22.013Z,1.85
2023-04-17T03:43:59.094Z,1.90
2023-04-17T03:46:48.125Z,2.05
2023-04-17T03:52:24.129Z,1.73
2023-04-17T03:54:51.109Z,1.98
2023-04-17T03:57:18.189Z,1.95
2023-04-17T03:59:45.800Z,2.40
2023-04-17T04:02:13.068Z,2.40
2023-04-17T04:04:40.391Z,2.40
2023-04-17T04:07:07.314Z,2.28
2023-04-17T04:09:36.607Z,2.03
2023-04-17T04:12:03.395Z,2.13
2023-04-17T04:14:30.657Z,2.28
2023-04-17T04:16:57.566Z,2.10
2023-04-17T04:19:24.473Z,2.20
2023-04-17T04:21:53.855Z,2.30
2023-04-17T04:24:20.609Z,2.03
2023-04-17T04:26:49.912Z,2.22
2023-04-17T04:29:17.071Z,1.98
2023-04-17T04:31:46.794Z,1.65
2023-04-17T04:34:13.630Z,1.95
2023-04-17T04:36:50.081Z,2.35
2023-04-17T04:39:20.919Z,2.10
2023-04-17T04:41:51.547Z,1.90
2023-04-17T04:44:19.202Z,1.90
2023-04-17T04:46:46.879Z,2.38
2023-04-17T04:49:17.341Z,1.88
2023-04-17T04:51:45.055Z,2.13
2023-04-17T04:54:22.487Z,2.10
2023-04-17T04:56:53.219Z,2.75
2023-04-17T04:59:21.134Z,2.38
2023-04-17T05:01:48.076Z,2.53
2023-04-17T05:04:33.534Z,3.23
2023-04-17T05:07:08.556Z,4.15
2023-04-17T05:09:46.499Z,4.28
2023-04-17T05:12:13.553Z,4.03
2023-04-17T05:14:41.226Z,3.53
2023-04-17T05:17:08.797Z,3.20
2023-04-17T05:19:35.662Z,2.50
2023-04-17T05:22:02.401Z,2.67
2023-04-17T05:24:32.639Z,2.28
2023-04-17T05:27:02.232Z,2.53
2023-04-17T05:29:29.058Z,2.90
2023-04-17T05:31:56.062Z,3.35
2023-04-17T05:34:22.915Z,3.40
2023-04-17T05:36:50.139Z,3.35
2023-04-17T05:39:18.568Z,2.90
2023-04-17T05:41:45.829Z,2.50
2023-04-17T05:44:15.804Z,2.70
2023-04-17T05:46:57.041Z,2.80
2023-04-17T05:49:23.986Z,2.25
2023-04-17T05:51:50.829Z,2.53
2023-04-17T05:54:17.947Z,2.58
2023-04-17T05:56:44.710Z,3.13
2023-04-17T05:59:11.925Z,3.40
2023-04-17T06:01:39.702Z,3.03
2023-04-17T06:04:12.271Z,3.10
2023-04-17T06:06:39.331Z,3.08
2023-04-17T06:09:16.957Z,2.97
2023-04-17T06:11:49.565Z,3.00
2023-04-17T06:14:16.865Z,2.90
2023-04-17T06:16:43.921Z,2.78
2023-04-17T06:19:11.554Z,2.42
2023-04-17T06:21:38.376Z,2.72
2023-04-17T06:24:48.717Z,2.83
2023-04-17T06:27:16.798Z,2.00
2023-04-17T06:29:46.870Z,2.40
2023-04-17T06:32:17.671Z,2.50
2023-04-17T06:34:58.495Z,2.58
2023-04-17T06:37:26.631Z,3.17
2023-04-17T06:39:56.852Z,3.10
2023-04-17T06:42:28.034Z,3.00
2023-04-17T06:45:49.889Z,3.38
2023-04-17T06:48:20.639Z,3.10
2023-04-17T06:50:51.627Z,3.40
2023-04-17T06:53:49.257Z,3.50
2023-04-17T06:56:30.781Z,3.67
2023-04-17T06:59:02.906Z,4.00
2023-04-17T07:01:40.748Z,3.85
2023-04-17T07:04:08.855Z,3.38
2023-04-17T07:06:37.566Z,3.30
2023-04-17T07:09:10.531Z,3.05
2023-04-17T07:11:39.932Z,3.75
2023-04-17T07:14:07.358Z,3.97
2023-04-17T07:16:43.211Z,3.58
2023-04-17T07:19:10.819Z,4.10
2023-04-17T07:21:59.386Z,4.13
2023-04-17T07:24:27.836Z,4.53
2023-04-17T07:27:01.950Z,4.60
2023-04-17T07:29:29.344Z,4.10
2023-04-17T07:31:57.328Z,3.95
2023-04-17T07:34:49.512Z,3.83
2023-04-17T07:37:16.642Z,4.18
2023-04-17T07:39:43.657Z,4.50
2023-04-17T07:42:16.907Z,4.40
2023-04-17T07:44:43.898Z,4.93
2023-04-17T07:47:11.408Z,4.60
2023-04-17T07:49:41.278Z,4.35
2023-04-17T07:52:08.180Z,4.65
2023-04-17T07:54:35.239Z,3.73
2023-04-17T07:57:11.239Z,3.70
2023-04-17T07:59:44.092Z,3.58
2023-04-17T08:02:13.303Z,3.63
2023-04-17T08:04:40.891Z,2.95
2023-04-17T08:07:13.034Z,2.50
2023-04-17T08:09:42.560Z,2.00
2023-04-17T08:12:10.862Z,1.67
2023-04-17T08:14:39.184Z,1.80
2023-04-17T08:17:07.691Z,1.73
2023-04-17T08:19:38.726Z,1.50
2023-04-17T08:22:06.364Z,2.00
2023-04-17T08:24:33.666Z,2.03
2023-04-17T08:27:06.681Z,1.90
2023-04-17T08:29:33.737Z,1.77
2023-04-17T08:32:14.114Z,1.90
2023-04-17T08:34:46.249Z,2.47
2023-04-17T08:37:13.201Z,2.55
2023-04-17T08:39:39.970Z,2.10
2023-04-17T08:42:15.840Z,2.03
2023-04-17T08:47:13.242Z,4.35
2023-04-17T08:49:44.073Z,4.80
2023-04-17T08:52:11.440Z,3.45
2023-04-17T08:54:39.187Z,2.28
2023-04-17T08:57:08.986Z,3.22
2023-04-17T08:59:36.025Z,2.17
2023-04-17T09:02:08.293Z,2.28
2023-04-17T09:04:44.162Z,2.08
2023-04-17T09:07:13.628Z,2.00
2023-04-17T09:10:00.845Z,2.10
2023-04-17T09:15:18.088Z,2.13
2023-04-17T09:17:48.972Z,1.98
2023-04-17T09:20:17.599Z,2.30
2023-04-17T09:22:47.703Z,2.22
2023-04-17T09:25:29.105Z,2.15
2023-04-17T09:31:07.140Z,2.00
2023-04-17T09:33:37.768Z,2.03
2023-04-17T09:36:24.088Z,2.22
2023-04-17T09:38:57.634Z,1.80
2023-04-17T09:44:29.079Z,2.08
2023-04-17T09:47:13.489Z,2.50
2023-04-17T09:50:05.125Z,2.10
2023-04-17T09:52:32.942Z,2.25
2023-04-17T09:55:25.260Z,2.58
2023-04-17T09:57:55.084Z,2.00
2023-04-17T10:00:25.912Z,1.88
2023-04-17T10:02:53.664Z,2.03
2023-04-17T10:07:55.534Z,1.92
2023-04-17T10:10:35.124Z,2.35
2023-04-17T10:13:04.386Z,2.28
2023-04-17T10:15:32.717Z,2.38
2023-04-17T10:18:19.741Z,2.00
2023-04-17T10:20:48.552Z,2.50
2023-04-17T10:23:41.495Z,2.20
2023-04-17T10:26:30.290Z,2.58
2023-04-17T10:29:02.350Z,2.50
2023-04-17T10:32:07.472Z,2.38
2023-04-17T10:34:39.298Z,2.58
2023-04-17T10:37:16.953Z,2.70
2023-04-17T10:40:01.834Z,3.20
2023-04-17T10:42:33.622Z,2.72
2023-04-17T10:45:07.130Z,3.33
2023-04-17T10:47:36.995Z,4.40
2023-04-17T10:50:09.147Z,2.45
2023-04-17T10:52:58.319Z,2.63
2023-04-17T10:55:30.787Z,3.05
2023-04-17T10:58:14.411Z,2.72
2023-04-17T11:01:02.603Z,2.90
2023-04-17T11:03:38.250Z,2.67
2023-04-17T11:06:13.474Z,2.95
2023-04-17T11:08:50.662Z,3.30
2023-04-17T11:11:35.312Z,2.40
2023-04-17T11:14:14.194Z,2.10
2023-04-17T11:16:43.443Z,2.53
2023-04-17T11:19:14.996Z,2.50
2023-04-17T11:21:51.993Z,2.03
2023-04-17T11:24:29.094Z,2.60
2023-04-17T11:26:59.748Z,2.53
2023-04-17T11:29:27.397Z,2.33
2023-04-17T11:31:56.585Z,2.40
2023-04-17T11:34:25.559Z,2.55
2023-04-17T11:36:57.738Z,2.22
2023-04-17T11:39:30.017Z,2.55
2023-04-17T11:41:57.376Z,1.98
2023-04-17T11:44:25.196Z,1.98
2023-04-17T11:46:52.682Z,1.70
2023-04-17T11:49:28.848Z,2.00
2023-04-17T11:51:59.338Z,1.90
2023-04-17T11:54:30.215Z,2.10
2023-04-17T11:57:12.773Z,1.90
2023-04-17T11:59:42.218Z,2.65
2023-04-17T12:02:10.242Z,2.75
2023-04-17T12:04:40.095Z,2.08
2023-04-17T12:07:08.753Z,2.13
2023-04-17T12:09:36.831Z,1.75
2023-04-17T12:12:08.263Z,1.92
2023-04-17T12:18:17.121Z,2.20
2023-04-17T12:20:44.802Z,1.70
2023-04-17T12:23:11.991Z,1.98
2023-04-17T12:25:39.558Z,2.00
2023-04-17T12:28:09.476Z,1.88
2023-04-17T12:30:40.026Z,2.10
2023-04-17T12:33:07.523Z,1.70
2023-04-17T12:35:34.562Z,2.05
2023-04-17T12:38:01.865Z,2.47
2023-04-17T12:40:28.730Z,2.50
2023-04-17T12:42:58.127Z,2.20
2023-04-17T12:45:28.402Z,2.70
2023-04-17T12:47:57.453Z,1.90
2023-04-17T12:50:25.328Z,2.50
2023-04-17T12:55:21.236Z,1.92
2023-04-17T12:57:51.164Z,2.10
2023-04-17T13:00:18.813Z,2.05
2023-04-17T13:02:45.930Z,1.92
2023-04-17T13:05:13.241Z,2.35
2023-04-17T13:07:40.043Z,2.00
2023-04-17T13:10:07.675Z,1.65
2023-04-17T13:15:01.417Z,1.48
2023-04-17T13:17:28.283Z,1.40
2023-04-17T13:19:55.347Z,1.50
2023-04-17T13:22:22.326Z,1.40
2023-04-17T13:24:49.222Z,1.33
2023-04-17T13:27:16.781Z,1.75
2023-04-17T13:29:44.062Z,1.58
2023-04-17T13:32:23.418Z,1.83
2023-04-17T13:34:53.861Z,1.23
2023-04-17T13:37:24.711Z,1.20
2023-04-17T13:39:51.966Z,1.00
2023-04-17T13:42:19.614Z,1.23
2023-04-17T13:44:46.940Z,1.30
2023-04-17T13:47:13.884Z,1.63
2023-04-17T13:49:41.128Z,1.33
2023-04-17T13:52:08.082Z,1.27
2023-04-17T13:54:35.003Z,1.13
2023-04-17T13:57:05.060Z,1.40
2023-04-17T13:59:32.117Z,1.50
2023-04-17T14:02:01.624Z,1.42
2023-04-17T14:04:32.202Z,1.08
2023-04-17T14:06:59.688Z,1.30
2023-04-17T14:09:27.542Z,1.45
2023-04-17T14:14:21.585Z,1.00
2023-04-17T14:16:49.894Z,1.27
2023-04-17T14:19:20.809Z,1.05
2023-04-17T14:22:20.339Z,1.00
2023-04-17T14:28:15.296Z,1.38
2023-04-17T14:30:42.605Z,1.38
2023-04-17T14:33:17.464Z,1.42
2023-04-17T14:35:50.598Z,1.50
2023-04-17T14:38:18.260Z,1.27
2023-04-17T14:40:59.819Z,1.55
2023-04-17T14:43:27.390Z,1.80
2023-04-17T14:45:54.439Z,1.30
2023-04-17T14:48:24.483Z,1.50
2023-04-17T14:50:51.765Z,1.35
2023-04-17T14:53:22.070Z,1.15
2023-04-17T14:55:48.924Z,1.45
2023-04-17T14:58:16.317Z,1.13
2023-04-17T15:00:45.893Z,2.00
2023-04-17T15:03:13.606Z,1.50
2023-04-17T15:08:09.628Z,1.00
2023-04-17T15:10:50.746Z,1.00
2023-04-17T15:13:18.432Z,1.20
2023-04-17T15:15:45.103Z,1.20
2023-04-17T15:18:12.029Z,1.05
2023-04-17T15:20:39.215Z,1.23
2023-04-17T15:23:09.161Z,1.00
2023-04-17T15:25:35.984Z,1.40
2023-04-17T15:28:03.290Z,1.40
2023-04-17T15:30:30.366Z,1.40
2023-04-17T15:32:57.632Z,1.33
2023-04-17T15:35:24.846Z,1.40
2023-04-17T15:37:51.784Z,1.20
2023-04-17T15:40:24.961Z,1.08
2023-04-17T15:42:58.120Z,1.17
2023-04-17T15:45:35.049Z,1.17
2023-04-17T15:50:55.769Z,1.42
2023-04-17T15:53:26.969Z,1.63
2023-04-17T15:56:02.724Z,1.65
2023-04-17T15:58:34.030Z,1.90
2023-04-17T16:01:42.959Z,1.70
2023-04-17T16:04:06.521Z,1.40
2023-04-17T16:07:20.462Z,1.40
2023-04-17T16:13:50.430Z,3.08
2023-04-17T16:17:12.518Z,2.13
2023-04-17T16:22:35.969Z,2.95
2023-04-17T16:25:20.293Z,2.90
2023-04-17T16:27:55.307Z,2.78
2023-04-17T16:30:27.638Z,2.25
2023-04-17T16:32:54.560Z,1.92
2023-04-17T16:35:43.546Z,2.53
2023-04-17T16:38:11.274Z,2.63
2023-04-17T16:40:41.738Z,2.42
2023-04-17T16:43:09.583Z,2.30
2023-04-17T16:48:13.333Z,1.52
2023-04-17T16:50:41.638Z,1.55
2023-04-17T16:53:20.161Z,1.40
2023-04-17T16:55:48.971Z,1.30
2023-04-17T16:58:22.658Z,1.50
2023-04-17T17:01:01.285Z,1.40
2023-04-17T17:03:29.012Z,2.40
2023-04-17T17:05:58.296Z,4.72
2023-04-17T17:08:29.635Z,1.30
2023-04-17T17:10:57.830Z,1.10
2023-04-17T17:13:31.824Z,1.70
2023-04-17T17:15:59.137Z,1.02
2023-04-17T17:18:26.369Z,1.08
2023-04-17T17:20:59.195Z,3.15
2023-04-17T17:23:50.373Z,1.52
2023-04-17T17:26:26.256Z,0.93
2023-04-17T17:29:22.855Z,0.95
2023-04-17T17:31:58.833Z,8.30
2023-04-17T17:34:36.573Z,2.20
2023-04-17T17:37:07.488Z,3.15
2023-04-17T17:39:42.074Z,2.70
2023-04-17T17:42:12.312Z,1.25
2023-04-17T17:44:39.985Z,1.25
2023-04-17T17:47:11.357Z,1.80
2023-04-17T17:50:40.517Z,1.08
2023-04-17T17:53:03.057Z,1.60
2023-04-17T17:56:22.751Z,1.17
2023-04-17T17:58:54.112Z,1.20
2023-04-17T18:01:56.303Z,1.45
2023-04-17T18:04:34.165Z,1.40
2023-04-17T18:07:11.615Z,1.83
2023-04-17T18:09:42.050Z,1.58
2023-04-17T18:12:35.284Z,2.13
2023-04-17T18:18:59.838Z,2.50
2023-04-17T18:22:01.365Z,1.85
2023-04-17T18:25:37.893Z,2.35
2023-04-17T18:31:47.923Z,2.13
2023-04-17T18:34:15.139Z,1.90
2023-04-17T18:40:14.218Z,1.85
2023-04-17T18:43:12.737Z,1.90
2023-04-17T18:45:40.142Z,1.38
2023-04-17T18:52:03.679Z,1.52
2023-04-17T18:57:47.768Z,2.70
2023-04-17T19:00:51.907Z,3.80
2023-04-17T19:06:41.765Z,1.88
2023-04-17T19:09:30.708Z,2.70
2023-04-17T19:12:00.880Z,3.25
2023-04-17T19:14:48.209Z,2.72
2023-04-17T19:17:54.687Z,1.45
2023-04-17T19:21:21.901Z,1.58
2023-04-17T19:24:26.022Z,1.42
2023-04-17T19:27:59.048Z,2.08
2023-04-17T19:30:56.619Z,2.80
2023-04-17T19:37:07.040Z,1.77
2023-04-17T19:40:24.393Z,1.20
2023-04-17T19:43:18.622Z,1.40
2023-04-17T19:45:52.851Z,1.50
2023-04-17T19:49:01.327Z,1.58
2023-04-17T19:51:39.098Z,1.60
2023-04-17T19:54:12.595Z,1.33
2023-04-17T19:57:16.649Z,1.40
2023-04-17T20:00:07.432Z,1.42
2023-04-17T20:02:38.577Z,1.50
2023-04-17T20:07:57.444Z,1.40
2023-04-17T20:10:34.647Z,1.08
2023-04-17T20:13:19.040Z,1.10
2023-04-17T20:16:19.939Z,1.10
2023-04-17T20:25:01.587Z,0.95
2023-04-17T20:27:49.583Z,1.15
2023-04-17T20:30:44.639Z,1.00
2023-04-17T20:33:22.900Z,0.75
2023-04-17T20:39:06.066Z,1.10
2023-04-17T20:41:32.245Z,0.90
2023-04-17T20:44:19.762Z,0.57
2023-04-17T20:46:59.184Z,1.05
2023-04-17T20:50:06.518Z,0.85
2023-04-17T20:58:54.140Z,0.93
2023-04-17T21:04:26.005Z,1.50
2023-04-17T21:07:20.093Z,1.25
2023-04-17T21:10:06.196Z,1.33
2023-04-17T21:12:54.145Z,1.10
2023-04-17T21:15:24.145Z,1.27
2023-04-17T21:18:13.459Z,0.95
2023-04-17T21:21:21.135Z,1.30
2023-04-17T21:24:04.524Z,1.08
2023-04-17T21:29:56.800Z,1.02
2023-04-17T21:32:36.199Z,0.95
2023-04-17T21:35:31.220Z,1.48
2023-04-17T21:41:09.237Z,0.82
2023-04-17T21:46:23.772Z,1.00
2023-04-17T21:49:02.312Z,0.90
2023-04-17T21:51:45.351Z,1.30
2023-04-17T21:54:37.154Z,1.23
2023-04-17T21:57:19.028Z,1.10
2023-04-17T21:59:59.980Z,1.17
2023-04-17T22:02:33.775Z,1.27
2023-04-17T22:05:13.084Z,1.17
2023-04-17T22:07:54.424Z,1.40
2023-04-17T22:13:31.071Z,1.40
2023-04-17T22:19:07.280Z,1.30
2023-04-17T22:21:41.616Z,1.30
2023-04-17T22:24:21.723Z,1.10
2023-04-17T22:27:15.928Z,1.00
2023-04-17T22:30:06.635Z,1.10
2023-04-17T22:32:41.178Z,1.23
2023-04-17T22:35:17.860Z,1.10
2023-04-17T22:38:02.297Z,0.95
2023-04-17T22:40:42.340Z,1.00
2023-04-17T22:43:12.263Z,1.23
2023-04-17T22:46:06.186Z,1.13
2023-04-17T22:49:11.579Z,1.23
2023-04-17T22:58:14.383Z,1.42
2023-04-17T23:00:50.306Z,1.30
2023-04-17T23:03:47.627Z,1.30
2023-04-17T23:06:23.948Z,0.98
2023-04-17T23:09:12.638Z,1.20
2023-04-17T23:11:58.249Z,1.20
2023-04-17T23:14:48.140Z,1.42
2023-04-17T23:17:43.526Z,1.05
2023-04-17T23:23:02.877Z,1.23
2023-04-17T23:25:39.415Z,1.52
2023-04-17T23:28:53.700Z,1.42
2023-04-17T23:31:38.417Z,1.27
2023-04-17T23:34:15.910Z,1.10
2023-04-17T23:36:58.112Z,1.15
2023-04-17T23:39:39.688Z,0.98
2023-04-17T23:42:34.190Z,0.90
2023-04-17T23:45:15.263Z,1.05
2023-04-17T23:48:12.979Z,0.98
2023-04-17T23:51:07.614Z,1.15
2023-04-17T23:53:34.835Z,1.13
2023-04-17T23:56:10.101Z,1.08
